Time;durP1;ratioP1;P1;durP2;ratioP2;P2;SDS_P1;SDS_P2;PMS_P1;PMS_P2;Temp;Humidity;BMP_temperature;BMP_pressure;BME280_temperature;BME280_humidity;BME280_pressure;Samples;Min_cycle;Max_cycle;Signal;HPM_P1;HPM_P2
2021/07/28 00:00:05;;;;;;;10.60;9.73;;;17.20;99.90;;;;;;4996785;28;20425;-93
2021/07/28 00:02:31;;;;;;;11.30;8.97;;;17.50;99.90;;;;;;4995451;28;20415;-93
2021/07/28 00:04:57;;;;;;;9.50;8.70;;;16.80;99.90;;;;;;4996729;28;20428;-93
2021/07/28 00:07:22;;;;;;;9.43;8.83;;;16.90;99.90;;;;;;4996271;28;20200;-93
2021/07/28 00:09:48;;;;;;;10.27;8.60;;;17.30;99.90;;;;;;4995678;28;20524;-93
2021/07/28 00:12:14;;;;;;;9.83;8.90;;;17.30;99.90;;;;;;4995357;28;20173;-91
2021/07/28 00:14:39;;;;;;;9.63;8.83;;;17.30;99.90;;;;;;4994840;28;20700;-93
2021/07/28 00:17:08;;;;;;;11.43;9.23;;;17.40;99.90;;;;;;4995456;28;20185;-91
2021/07/28 00:19:49;;;;;;;9.53;8.47;;;18.90;99.90;;;;;;4996204;28;20432;-92
2021/07/28 00:25:04;;;;;;;9.97;9.13;;;17.20;99.90;;;;;;4997777;28;20515;-91
2021/07/28 00:27:30;;;;;;;9.27;8.50;;;17.40;99.90;;;;;;5002447;28;20417;-92
2021/07/28 00:29:58;;;;;;;10.30;9.40;;;17.40;99.90;;;;;;5007004;28;20423;-92
2021/07/28 00:32:26;;;;;;;16.17;9.50;;;17.50;99.90;;;;;;5003419;28;20221;-92
2021/07/28 00:34:52;;;;;;;8.77;7.90;;;17.40;99.90;;;;;;5000743;28;21025;-93
2021/07/28 00:37:18;;;;;;;11.40;8.80;;;;;;;;;;4999537;28;20420;-93
2021/07/28 00:39:43;;;;;;;9.43;8.20;;;17.40;99.90;;;;;;4998267;28;20209;-94
2021/07/28 00:42:12;;;;;;;8.10;7.40;;;;;;;;;;4998287;28;20442;-93
2021/07/28 00:44:38;;;;;;;8.77;7.90;;;;;;;;;;4998987;28;20573;-94
2021/07/28 00:47:03;;;;;;;8.57;7.90;;;17.60;99.90;;;;;;4999428;28;20499;-93
2021/07/28 00:49:32;;;;;;;8.87;8.00;;;;;;;;;;4999988;28;20927;-94
2021/07/28 00:52:02;;;;;;;9.63;8.83;;;;;;;;;;4999177;28;20224;-93
2021/07/28 00:54:31;;;;;;;8.53;7.70;;;17.60;99.90;;;;;;5014703;28;20475;-93
2021/07/28 00:56:57;;;;;;;13.10;10.13;;;17.40;99.90;;;;;;5019261;28;20430;-91
2021/07/28 00:59:24;;;;;;;9.50;8.80;;;16.50;99.90;;;;;;5000493;28;20416;-92
2021/07/28 01:01:51;;;;;;;10.30;9.40;;;17.40;99.90;;;;;;5008001;28;20444;-92
2021/07/28 01:04:18;;;;;;;11.50;8.77;;;17.40;99.90;;;;;;5029180;28;20519;-92
2021/07/28 01:06:43;;;;;;;9.20;8.50;;;17.40;99.90;;;;;;5027965;28;20416;-92
2021/07/28 01:09:09;;;;;;;9.93;8.97;;;17.30;99.90;;;;;;5020138;28;20519;-92
2021/07/28 01:11:36;;;;;;;12.87;11.50;;;17.30;99.90;;;;;;5020183;28;20177;-92
2021/07/28 01:14:04;;;;;;;9.03;8.23;;;17.40;99.90;;;;;;5020643;28;20212;-92
2021/07/28 01:16:34;;;;;;;9.20;8.50;;;17.30;99.90;;;;;;5026066;28;20412;-92
2021/07/28 01:19:01;;;;;;;11.13;8.67;;;;;;;;;;5029721;28;20926;-92
2021/07/28 01:21:27;;;;;;;7.73;7.13;;;17.40;99.90;;;;;;5026624;28;20422;-92
2021/07/28 01:23:54;;;;;;;9.80;8.40;;;17.40;99.90;;;;;;5024630;28;20412;-92
2021/07/28 01:26:20;;;;;;;9.10;8.40;;;;;;;;;;5017950;28;20506;-93
2021/07/28 01:28:46;;;;;;;9.17;8.33;;;;;;;;;;5018337;28;20412;-92
2021/07/28 01:31:17;;;;;;;7.80;7.20;;;17.50;99.90;;;;;;5019971;28;20408;-92
2021/07/28 01:33:47;;;;;;;9.50;8.60;;;17.20;99.90;;;;;;5019119;28;20412;-92
2021/07/28 01:36:18;;;;;;;12.17;8.50;;;17.50;99.90;;;;;;5020076;28;20442;-92
2021/07/28 01:38:45;;;;;;;8.50;7.80;;;17.70;99.90;;;;;;5020678;28;20412;-93
2021/07/28 01:41:11;;;;;;;8.90;7.90;;;17.50;99.90;;;;;;5020921;28;20506;-94
2021/07/28 01:43:38;;;;;;;9.37;8.37;;;17.50;99.90;;;;;;5018896;28;20441;-92
2021/07/28 01:46:05;;;;;;;8.33;7.63;;;17.50;99.90;;;;;;5020137;28;20438;-92
2021/07/28 01:48:30;;;;;;;10.20;9.33;;;17.40;99.90;;;;;;5020567;28;20411;-93
2021/07/28 01:50:57;;;;;;;9.07;8.23;;;;;;;;;;5017685;28;20446;-94
2021/07/28 01:53:24;;;;;;;9.20;8.50;;;17.50;99.90;;;;;;5017920;28;20176;-94
2021/07/28 01:55:51;;;;;;;10.00;9.10;;;17.00;99.90;;;;;;5017869;28;20557;-92
2021/07/28 01:58:18;;;;;;;10.97;8.50;;;16.90;99.90;;;;;;5018612;28;20439;-94
2021/07/28 02:00:43;;;;;;;11.80;8.70;;;17.20;99.90;;;;;;5018939;28;20431;-93
2021/07/28 02:03:09;;;;;;;8.77;8.07;;;17.00;99.90;;;;;;5017985;28;20415;-94
2021/07/28 02:05:36;;;;;;;9.67;8.77;;;17.60;99.90;;;;;;5017994;28;20184;-93
2021/07/28 02:08:04;;;;;;;9.17;8.23;;;16.30;99.90;;;;;;5017713;28;20175;-93
2021/07/28 02:10:31;;;;;;;12.40;8.47;;;17.60;99.90;;;;;;5018453;28;20499;-93
2021/07/28 02:12:57;;;;;;;9.57;8.77;;;18.70;99.90;;;;;;5019589;28;20506;-92
2021/07/28 02:15:23;;;;;;;12.27;9.67;;;17.50;99.90;;;;;;5016839;28;20498;-94
2021/07/28 02:17:54;;;;;;;9.90;9.10;;;17.20;99.90;;;;;;5020521;28;20519;-92
2021/07/28 02:20:23;;;;;;;9.73;9.03;;;17.50;99.90;;;;;;5018019;28;20423;-94
2021/07/28 02:22:50;;;;;;;10.30;8.83;;;;;;;;;;5019823;28;20412;-92
2021/07/28 02:25:16;;;;;;;12.23;9.93;;;17.30;99.90;;;;;;5020449;28;20447;-93
2021/07/28 02:27:42;;;;;;;10.17;9.37;;;17.30;99.90;;;;;;5020539;28;20919;-94
2021/07/28 02:30:10;;;;;;;10.03;9.30;;;17.40;99.90;;;;;;5020071;28;20419;-93
2021/07/28 02:32:37;;;;;;;11.00;10.13;;;17.30;99.90;;;;;;5018505;28;20471;-94
2021/07/28 02:35:03;;;;;;;9.47;8.77;;;17.30;99.90;;;;;;5020839;28;20471;-92
2021/07/28 02:37:29;;;;;;;9.53;8.77;;;17.30;99.90;;;;;;5018527;28;20430;-93
2021/07/28 02:39:55;;;;;;;8.97;8.27;;;;;;;;;;5018430;28;20503;-92
2021/07/28 02:42:21;;;;;;;9.67;8.90;;;;;;;;;;5022718;28;20627;-93
2021/07/28 02:44:47;;;;;;;9.90;9.10;;;17.40;99.90;;;;;;5020961;28;20482;-94
2021/07/28 02:47:13;;;;;;;9.80;9.00;;;;;;;;;;5022353;28;20412;-95
2021/07/28 02:49:39;;;;;;;10.50;9.63;;;17.50;99.90;;;;;;5025610;28;20172;-92
2021/07/28 02:52:05;;;;;;;10.00;9.07;;;17.50;99.90;;;;;;5038546;28;20470;-93
2021/07/28 02:54:31;;;;;;;10.53;9.50;;;;;;;;;;5036805;28;20498;-92
2021/07/28 02:56:58;;;;;;;10.60;9.67;;;;;;;;;;5033887;28;20491;-92
2021/07/28 02:59:24;;;;;;;10.60;9.50;;;;;;;;;;5026270;28;20411;-92
2021/07/28 03:01:52;;;;;;;10.27;9.30;;;;;;;;;;5038239;28;20454;-93
2021/07/28 03:04:18;;;;;;;10.20;9.40;;;17.60;99.90;;;;;;5038416;28;20400;-92
2021/07/28 03:06:45;;;;;;;10.47;9.60;;;;;;;;;;5037911;28;20439;-91
2021/07/28 03:09:11;;;;;;;11.17;10.07;;;;;;;;;;5037334;28;20415;-91
2021/07/28 03:11:37;;;;;;;11.13;9.93;;;;;;;;;;5037385;28;20415;-92
2021/07/28 03:14:04;;;;;;;11.23;10.03;;;;;;;;;;5025692;28;20525;-93
2021/07/28 03:16:31;;;;;;;10.40;9.37;;;;;;;;;;5023359;28;20960;-93
2021/07/28 03:18:57;;;;;;;11.60;9.90;;;;;;;;;;5019423;28;20450;-93
2021/07/28 03:21:23;;;;;;;10.27;9.23;;;18.00;99.90;;;;;;5019815;28;20473;-92
2021/07/28 03:23:49;;;;;;;10.50;9.43;;;;;;;;;;5023781;28;20420;-91
2021/07/28 03:26:14;;;;;;;9.83;9.13;;;17.80;99.90;;;;;;5030497;28;20204;-91
2021/07/28 03:28:40;;;;;;;9.87;9.17;;;;;;;;;;5029706;28;20431;-92
2021/07/28 03:31:06;;;;;;;10.37;9.50;;;;;;;;;;5019191;28;20200;-93
2021/07/28 03:33:32;;;;;;;10.53;9.63;;;;;;;;;;5021538;28;20436;-90
2021/07/28 03:35:58;;;;;;;9.93;9.03;;;;;;;;;;5021834;28;20502;-92
2021/07/28 03:38:25;;;;;;;9.57;8.60;;;17.80;99.90;;;;;;5021899;28;20415;-91
2021/07/28 03:40:51;;;;;;;10.40;9.50;;;;;;;;;;5019679;28;20419;-92
2021/07/28 03:43:20;;;;;;;14.23;9.80;;;17.40;99.90;;;;;;5019575;28;20430;-92
2021/07/28 03:45:46;;;;;;;10.57;9.70;;;17.40;99.90;;;;;;5020060;28;20427;-91
2021/07/28 03:48:11;;;;;;;11.60;9.50;;;17.30;99.90;;;;;;5017160;28;20570;-92
2021/07/28 03:50:37;;;;;;;9.97;8.87;;;;;;;;;;5020895;28;20427;-93
2021/07/28 03:53:04;;;;;;;9.90;9.10;;;17.40;99.90;;;;;;5019901;28;20169;-92
2021/07/28 03:55:30;;;;;;;10.97;10.17;;;;;;;;;;5020524;28;20471;-93
2021/07/28 03:57:56;;;;;;;10.17;9.20;;;17.80;99.90;;;;;;5017735;28;20416;-92
2021/07/28 04:00:22;;;;;;;12.30;10.20;;;;;;;;;;5023531;28;20427;-93
2021/07/28 04:02:48;;;;;;;9.80;8.90;;;17.50;99.90;;;;;;5020531;28;20176;-92
2021/07/28 04:05:14;;;;;;;10.20;9.30;;;17.50;99.90;;;;;;5022934;28;20419;-93
2021/07/28 04:07:40;;;;;;;9.73;8.83;;;17.60;99.90;;;;;;5020537;28;20459;-92
2021/07/28 04:10:07;;;;;;;10.97;9.87;;;17.50;99.90;;;;;;5019787;28;20973;-92
2021/07/28 04:12:32;;;;;;;11.50;10.53;;;17.70;99.90;;;;;;5021531;28;20470;-91
2021/07/28 04:14:58;;;;;;;11.50;10.57;;;17.60;99.90;;;;;;5019841;28;20471;-91
2021/07/28 04:17:24;;;;;;;12.80;9.90;;;17.60;99.90;;;;;;5022008;28;20183;-91
2021/07/28 04:19:49;;;;;;;10.67;9.70;;;17.60;99.90;;;;;;5019013;28;20183;-91
2021/07/28 04:22:16;;;;;;;9.03;8.33;;;17.70;99.90;;;;;;5022085;28;20197;-91
2021/07/28 04:24:46;;;;;;;10.17;9.33;;;17.60;99.90;;;;;;5023196;28;20176;-91
2021/07/28 04:27:14;;;;;;;10.30;9.40;;;17.30;99.90;;;;;;5023646;28;20432;-92
2021/07/28 04:29:40;;;;;;;11.13;9.97;;;19.30;99.90;;;;;;5025839;28;20412;-91
2021/07/28 04:32:07;;;;;;;11.57;9.93;;;17.80;99.90;;;;;;5025408;28;20514;-92
2021/07/28 04:34:38;;;;;;;11.60;10.43;;;18.10;99.90;;;;;;5024991;28;20479;-92
2021/07/28 04:37:04;;;;;;;11.37;10.13;;;18.00;98.40;;;;;;5030993;28;20403;-89
2021/07/28 04:39:33;;;;;;;11.13;9.73;;;18.00;99.90;;;;;;5029096;28;20832;-92
2021/07/28 04:41:59;;;;;;;10.53;9.73;;;;;;;;;;4661842;28;9999816;-92
2021/07/28 04:44:25;;;;;;;10.90;9.83;;;;;;;;;;5001406;28;20455;-85
2021/07/28 04:46:51;;;;;;;15.07;9.83;;;18.00;99.90;;;;;;5005010;28;20460;-91
2021/07/28 04:49:17;;;;;;;10.03;9.13;;;;;;;;;;5001590;28;20431;-93
2021/07/28 04:51:43;;;;;;;9.67;8.63;;;;;;;;;;5003581;28;20252;-92
2021/07/28 04:54:09;;;;;;;10.50;9.37;;;18.00;99.90;;;;;;5002052;28;20459;-92
2021/07/28 04:56:35;;;;;;;9.40;8.57;;;;;;;;;;5001481;28;20486;-91
2021/07/28 04:59:03;;;;;;;10.40;9.50;;;;;;;;;;5001444;28;20223;-91
2021/07/28 05:01:29;;;;;;;9.47;8.43;;;18.10;99.90;;;;;;5004198;28;20421;-93
2021/07/28 05:03:55;;;;;;;11.00;10.00;;;;;;;;;;5002320;28;20421;-92
2021/07/28 05:06:21;;;;;;;10.33;9.13;;;;;;;;;;5020480;28;20275;-93
2021/07/28 05:08:47;;;;;;;9.63;8.70;;;;;;;;;;5022409;28;20419;-93
2021/07/28 05:11:14;;;;;;;10.47;9.17;;;18.00;99.90;;;;;;5024633;28;20495;-91
2021/07/28 05:13:40;;;;;;;10.60;9.60;;;18.00;99.70;;;;;;5028568;28;20407;-93
2021/07/28 05:16:05;;;;;;;13.10;9.70;;;18.10;99.60;;;;;;5023111;28;20463;-93
2021/07/28 05:18:31;;;;;;;9.87;8.97;;;;;;;;;;5018711;28;20176;-90
2021/07/28 05:20:57;;;;;;;10.17;9.37;;;18.20;99.50;;;;;;5020280;28;20244;-92
2021/07/28 05:23:25;;;;;;;13.10;9.27;;;;;;;;;;5019955;28;20419;-91
2021/07/28 05:25:54;;;;;;;10.90;10.00;;;17.70;99.00;;;;;;5020084;28;20180;-93
2021/07/28 05:28:19;;;;;;;10.70;9.70;;;18.40;98.90;;;;;;5008005;28;20478;-92
2021/07/28 05:30:45;;;;;;;9.40;8.70;;;18.40;98.70;;;;;;5004016;28;20915;-92
2021/07/28 05:33:11;;;;;;;11.03;9.93;;;;;;;;;;5024150;28;20236;-93
2021/07/28 05:35:44;;;;;;;10.40;9.50;;;;;;;;;;5022962;28;20216;-93
2021/07/28 05:38:10;;;;;;;9.37;8.57;;;;;;;;;;5009410;28;20419;-92
2021/07/28 05:40:36;;;;;;;9.33;8.63;;;18.50;98.20;;;;;;5001198;28;20930;-92
2021/07/28 05:43:02;;;;;;;10.37;9.13;;;;;;;;;;5021989;28;20442;-87
2021/07/28 05:45:28;;;;;;;11.90;10.47;;;18.70;98.30;;;;;;5030724;28;20176;-90
2021/07/28 05:48:14;;;;;;;10.20;9.20;;;18.60;98.20;;;;;;5032377;28;20456;-91
2021/07/28 05:51:08;;;;;;;9.37;8.47;;;18.90;97.10;;;;;;5066843;28;20176;-94
2021/07/28 05:53:48;;;;;;;8.57;7.80;;;19.50;99.90;;;;;;5115283;23;20509;-91
2021/07/28 05:56:28;;;;;;;8.47;7.87;;;20.00;96.00;;;;;;5055094;28;20454;-90
2021/07/28 06:04:17;;;;;;;8.37;7.70;;;20.10;93.80;;;;;;5181547;22;20490;-94
2021/07/28 06:06:43;;;;;;;9.30;8.43;;;20.30;99.90;;;;;;5054864;28;20414;-93
2021/07/28 06:09:09;;;;;;;9.30;8.40;;;;;;;;;;5047238;28;20250;-94
2021/07/28 06:11:37;;;;;;;8.37;7.90;;;20.50;92.50;;;;;;5040118;28;20642;-91
2021/07/28 06:14:06;;;;;;;8.13;7.43;;;20.10;92.60;;;;;;5044984;28;20532;-91
2021/07/28 06:16:32;;;;;;;8.10;7.53;;;;;;;;;;5027554;28;20431;-91
2021/07/28 06:18:58;;;;;;;10.13;9.17;;;19.90;93.20;;;;;;5037244;28;20507;-90
2021/07/28 06:21:23;;;;;;;8.70;8.10;;;19.70;93.40;;;;;;5037729;28;20419;-90
2021/07/28 06:23:49;;;;;;;8.17;7.53;;;19.60;95.40;;;;;;5037410;28;20267;-91
2021/07/28 06:26:15;;;;;;;7.80;7.30;;;;;;;;;;5049339;28;20164;-88
2021/07/28 06:28:41;;;;;;;9.00;8.10;;;;;;;;;;5047965;28;20168;-92
2021/07/28 06:31:06;;;;;;;8.80;8.10;;;19.50;95.40;;;;;;5042633;28;20425;-92
2021/07/28 06:33:36;;;;;;;11.03;8.97;;;19.10;95.40;;;;;;5043623;28;20746;-94
2021/07/28 06:36:02;;;;;;;8.30;7.70;;;19.20;95.60;;;;;;5047431;28;20191;-91
2021/07/28 06:38:28;;;;;;;8.63;8.00;;;;;;;;;;5047380;28;20426;-90
2021/07/28 06:40:53;;;;;;;8.17;7.67;;;19.60;94.40;;;;;;5045849;28;20203;-93
2021/07/28 06:43:32;;;;;;;8.50;7.90;;;19.50;95.60;;;;;;5051833;28;20429;-93
2021/07/28 06:45:59;;;;;;;7.80;7.30;;;;;;;;;;5019827;28;20180;-91
2021/07/28 06:48:37;;;;;;;7.70;7.20;;;19.80;94.70;;;;;;5284502;22;20566;-93
2021/07/28 06:51:29;;;;;;;7.80;7.20;;;19.70;96.30;;;;;;5031578;28;20470;-93
2021/07/28 06:54:02;;;;;;;9.07;8.00;;;20.10;95.10;;;;;;5032771;28;20396;-92
2021/07/28 06:56:30;;;;;;;9.40;7.67;;;;;;;;;;5048699;28;20948;-91
2021/07/28 07:01:31;;;;;;;9.07;8.47;;;;;;;;;;5027637;28;21020;-94
2021/07/28 07:03:57;;;;;;;7.80;7.30;;;;;;;;;;5031871;28;20791;-92
2021/07/28 07:06:23;;;;;;;8.90;8.17;;;;;;;;;;5027057;28;20427;-90
2021/07/28 07:11:25;;;;;;;7.43;6.80;;;19.10;96.60;;;;;;5088370;22;20835;-94
2021/07/28 07:13:52;;;;;;;8.20;7.43;;;19.00;99.40;;;;;;5049664;28;20491;-95
2021/07/28 07:16:17;;;;;;;8.20;7.70;;;18.70;99.90;;;;;;5028372;28;20184;-90
2021/07/28 07:18:43;;;;;;;8.80;8.20;;;;;;;;;;5050503;28;20399;-89
2021/07/28 07:21:09;;;;;;;10.17;9.10;;;;;;;;;;5049277;28;20187;-89
2021/07/28 07:23:56;;;;;;;9.17;8.37;;;18.80;99.90;;;;;;5045631;28;20909;-89
2021/07/28 07:26:44;;;;;;;9.33;8.50;;;18.40;99.90;;;;;;5048459;28;20406;-92
2021/07/28 07:29:10;;;;;;;8.37;7.80;;;;;;;;;;5050666;28;20421;-89
2021/07/28 07:31:36;;;;;;;9.00;8.23;;;18.50;99.90;;;;;;5238752;22;20506;-93
2021/07/28 07:34:02;;;;;;;8.87;7.87;;;;;;;;;;5048240;28;20463;-89
2021/07/28 07:36:28;;;;;;;13.77;7.67;;;;;;;;;;5049645;28;20234;-95
2021/07/28 07:39:04;;;;;;;8.27;7.50;;;19.30;99.90;;;;;;5051156;28;20418;-93
2021/07/28 07:44:08;;;;;;;8.97;7.97;;;19.60;99.90;;;;;;4967750;26;20465;-91
2021/07/28 07:46:39;;;;;;;8.77;7.97;;;;;;;;;;5011006;28;20504;-87
2021/07/28 07:49:05;;;;;;;7.87;7.37;;;;;;;;;;5042759;28;20414;-89
2021/07/28 07:51:33;;;;;;;7.53;6.93;;;20.10;98.60;;;;;;5041746;28;20567;-91
2021/07/28 07:54:00;;;;;;;7.30;6.80;;;20.30;98.40;;;;;;5040521;28;20767;-93
2021/07/28 07:56:27;;;;;;;8.40;7.67;;;20.20;98.50;;;;;;5054658;28;20997;-87
2021/07/28 07:58:53;;;;;;;10.20;9.33;;;20.00;99.90;;;;;;5162539;22;20521;-91
2021/07/28 08:01:19;;;;;;;8.77;7.87;;;;;;;;;;5046175;28;20476;-90
2021/07/28 08:03:46;;;;;;;10.13;9.23;;;19.40;99.90;;;;;;5036775;28;20198;-91
2021/07/28 08:06:25;;;;;;;8.77;8.17;;;19.40;99.90;;;;;;5028965;28;20835;-93
2021/07/28 08:08:51;;;;;;;10.60;9.00;;;;;;;;;;5027620;28;20429;-87
2021/07/28 08:11:17;;;;;;;10.67;9.57;;;;;;;;;;5040067;28;20474;-90
2021/07/28 08:13:44;;;;;;;9.57;8.77;;;;;;;;;;5045287;28;20442;-91
2021/07/28 08:16:20;;;;;;;10.70;9.57;;;18.60;99.90;;;;;;5049963;28;20474;-88
2021/07/28 08:18:54;;;;;;;12.00;10.70;;;18.50;99.90;;;;;;5028543;28;20422;-92
2021/07/28 08:21:20;;;;;;;14.80;13.50;;;18.10;99.90;;;;;;5036945;28;20952;-92
2021/07/28 08:23:46;;;;;;;11.37;10.47;;;18.20;99.90;;;;;;5048774;28;20427;-92
2021/07/28 08:26:16;;;;;;;9.67;8.97;;;18.20;99.90;;;;;;5046219;28;20240;-91
2021/07/28 08:28:42;;;;;;;8.17;7.57;;;;;;;;;;5042218;28;20494;-92
2021/07/28 08:31:08;;;;;;;6.87;6.47;;;;;;;;;;5040819;28;20514;-91
2021/07/28 08:33:37;;;;;;;9.57;7.30;;;;;;;;;;5045091;28;20426;-93
2021/07/28 08:36:05;;;;;;;9.03;8.50;;;18.20;99.90;;;;;;5050181;28;20576;-92
2021/07/28 08:38:32;;;;;;;9.97;9.27;;;;;;;;;;5050538;28;20419;-89
2021/07/28 08:41:03;;;;;;;5.70;5.43;;;18.40;99.90;;;;;;5042056;28;20842;-88
2021/07/28 08:43:34;;;;;;;6.43;5.90;;;18.70;99.90;;;;;;5040195;28;20399;-88
2021/07/28 08:46:10;;;;;;;5.47;5.03;;;18.80;99.90;;;;;;5041894;28;20431;-95
2021/07/28 08:48:37;;;;;;;8.47;7.63;;;19.30;99.90;;;;;;5045447;28;20928;-92
2021/07/28 08:51:07;;;;;;;9.80;9.10;;;18.90;99.90;;;;;;5043850;28;20470;-89
2021/07/28 08:53:33;;;;;;;6.13;5.73;;;21.40;99.90;;;;;;5050120;28;20472;-92
2021/07/28 08:56:01;;;;;;;5.13;4.83;;;;;;;;;;5029953;28;20488;-90
2021/07/28 08:58:28;;;;;;;6.10;5.60;;;;;;;;;;4697682;28;10000076;-89
2021/07/28 09:00:56;;;;;;;6.47;5.97;;;22.40;99.90;;;;;;5041077;28;20195;-89
2021/07/28 09:03:22;;;;;;;5.63;5.33;;;;;;;;;;5042417;28;20513;-94
2021/07/28 09:05:59;;;;;;;6.07;5.77;;;23.20;99.90;;;;;;5040832;28;20421;-92
2021/07/28 09:08:33;;;;;;;4.27;4.17;;;23.80;96.70;;;;;;5051167;28;20410;-89
2021/07/28 09:11:07;;;;;;;5.43;5.23;;;24.30;92.40;;;;;;5053316;28;20399;-90
2021/07/28 09:13:57;;;;;;;5.07;4.77;;;24.30;93.70;;;;;;5037066;28;20989;-93
2021/07/28 09:16:36;;;;;;;4.93;4.83;;;24.10;92.60;;;;;;5025790;28;20435;-94
2021/07/28 09:19:02;;;;;;;4.93;4.73;;;24.90;92.10;;;;;;5025887;28;20442;-89
2021/07/28 09:21:31;;;;;;;6.57;6.07;;;25.10;93.00;;;;;;5044345;28;20424;-85
2021/07/28 09:24:14;;;;;;;5.93;5.43;;;;;;;;;;5027016;28;20160;-91
2021/07/28 09:26:47;;;;;;;6.77;6.37;;;25.10;95.00;;;;;;5039152;28;20480;-94
2021/07/28 09:29:20;;;;;;;7.63;5.40;;;24.50;92.50;;;;;;5023509;28;20411;-93
2021/07/28 09:31:47;;;;;;;6.43;5.90;;;24.50;92.40;;;;;;4679737;28;9999885;-90
2021/07/28 09:34:19;;;;;;;6.30;5.90;;;24.20;95.10;;;;;;5037225;28;20461;-90
2021/07/28 09:36:45;;;;;;;5.43;5.20;;;24.70;85.60;;;;;;5035367;28;20422;-88
2021/07/28 09:41:38;;;;;;;6.30;5.73;;;25.60;56.80;;;;;;5108451;27;20500;-90
2021/07/28 09:44:04;;;;;;;6.27;5.60;;;25.40;54.60;;;;;;5092215;28;20422;-89
2021/07/28 09:46:32;;;;;;;6.00;5.80;;;26.90;64.50;;;;;;5105364;28;21039;-90
2021/07/28 09:49:00;;;;;;;5.70;5.13;;;26.80;64.10;;;;;;5112967;28;20187;-90
2021/07/28 09:51:32;;;;;;;5.17;4.87;;;29.50;56.40;;;;;;5085227;28;20935;-91
2021/07/28 09:54:01;;;;;;;11.33;10.33;;;25.40;53.10;;;;;;5095221;28;20503;-90
2021/07/28 09:56:36;;;;;;;5.40;5.20;;;24.90;55.20;;;;;;5100698;28;20475;-88
2021/07/28 09:59:05;;;;;;;6.37;6.07;;;24.80;54.70;;;;;;5084889;28;20412;-90
2021/07/28 10:01:37;;;;;;;6.20;5.80;;;24.70;72.00;;;;;;5080820;28;20449;-91
2021/07/28 10:04:08;;;;;;;5.53;5.13;;;25.00;55.30;;;;;;5095824;28;20413;-91
2021/07/28 10:06:43;;;;;;;5.07;4.80;;;25.20;56.20;;;;;;5062001;28;20496;-92
2021/07/28 10:09:17;;;;;;;4.73;4.53;;;23.10;52.50;;;;;;5078011;28;20409;-91
2021/07/28 10:11:51;;;;;;;5.47;5.17;;;26.10;54.00;;;;;;5079897;28;20404;-92
2021/07/28 10:14:18;;;;;;;6.80;6.07;;;25.60;54.70;;;;;;4713135;28;10000142;-92
2021/07/28 10:16:45;;;;;;;5.50;5.30;;;25.60;54.50;;;;;;5096731;28;20402;-93
2021/07/28 10:19:12;;;;;;;4.97;4.67;;;;;;;;;;5079416;28;20523;-92
2021/07/28 10:21:38;;;;;;;5.60;5.33;;;24.10;54.20;;;;;;5076429;28;20541;-90
2021/07/28 10:24:05;;;;;;;4.23;4.03;;;25.90;55.60;;;;;;5094137;28;20423;-92
2021/07/28 10:26:37;;;;;;;3.93;3.70;;;24.10;53.70;;;;;;5089551;28;20489;-88
2021/07/28 10:29:04;;;;;;;4.07;3.90;;;23.70;52.00;;;;;;5089481;28;20404;-87
2021/07/28 10:31:47;;;;;;;3.67;3.57;;;26.40;50.00;;;;;;5089392;28;20416;-87
2021/07/28 10:34:34;;;;;;;15.60;5.13;;;26.90;49.10;;;;;;5071830;28;20420;-86
2021/07/28 10:37:01;;;;;;;3.50;3.30;;;29.40;61.00;;;;;;5089138;28;20925;-87
2021/07/28 10:39:46;;;;;;;3.97;3.87;;;27.60;59.30;;;;;;5070312;28;20945;-87
2021/07/28 10:42:16;;;;;;;4.13;3.93;;;28.10;59.30;;;;;;5089979;28;20435;-88
2021/07/28 10:45:09;;;;;;;4.50;4.20;;;28.30;45.60;;;;;;5071403;28;20474;-89
2021/07/28 10:47:39;;;;;;;5.53;4.00;;;;;;;;;;5108648;28;20481;-88
2021/07/28 10:50:29;;;;;;;4.90;4.53;;;28.80;54.60;;;;;;5090401;28;20397;-88
2021/07/28 10:52:59;;;;;;;5.13;4.77;;;27.90;49.40;;;;;;5058710;28;20421;-88
2021/07/28 10:55:29;;;;;;;3.70;3.40;;;27.10;46.10;;;;;;5074823;28;20409;-87
2021/07/28 10:58:08;;;;;;;3.73;3.40;;;27.20;47.20;;;;;;5077390;28;20432;-88
2021/07/28 11:03:04;;;;;;;3.90;3.80;;;27.00;50.20;;;;;;5076012;28;20417;-87
2021/07/28 11:05:31;;;;;;;3.90;3.70;;;27.20;48.20;;;;;;5058057;28;20508;-89
2021/07/28 11:08:05;;;;;;;3.90;3.80;;;27.30;48.10;;;;;;5059525;28;20409;-89
2021/07/28 11:10:36;;;;;;;4.03;3.70;;;27.50;44.70;;;;;;5058328;28;20404;-88
2021/07/28 11:13:15;;;;;;;4.33;4.03;;;29.90;49.90;;;;;;5076601;28;20892;-88
2021/07/28 11:16:01;;;;;;;4.50;4.10;;;29.20;43.40;;;;;;5076146;28;20447;-89
2021/07/28 11:18:48;;;;;;;3.70;3.70;;;27.90;55.70;;;;;;5076692;28;20421;-88
2021/07/28 11:21:19;;;;;;;3.77;3.77;;;29.50;45.80;;;;;;5076257;28;20571;-89
2021/07/28 11:23:51;;;;;;;3.90;3.80;;;27.10;45.10;;;;;;5075479;28;20907;-87
2021/07/28 11:26:20;;;;;;;4.10;2.80;;;;;;;;;;5087555;28;20422;-88
2021/07/28 11:28:47;;;;;;;3.87;3.67;;;;;;;;;;5056480;28;20397;-89
2021/07/28 11:31:13;;;;;;;3.80;3.70;;;27.70;45.50;;;;;;5049310;28;20444;-87
2021/07/28 11:33:39;;;;;;;13.13;4.00;;;;;;;;;;5075702;28;20944;-87
2021/07/28 11:36:06;;;;;;;3.30;3.20;;;;;;;;;;5057165;28;20428;-87
2021/07/28 11:38:33;;;;;;;3.20;3.00;;;27.10;44.10;;;;;;5077794;28;20416;-90
2021/07/28 11:41:01;;;;;;;3.20;2.90;;;28.40;45.50;;;;;;5059118;28;21028;-90
2021/07/28 11:43:33;;;;;;;3.23;3.03;;;26.80;57.20;;;;;;5083180;28;20477;-91
2021/07/28 11:46:04;;;;;;;3.47;3.20;;;26.80;44.20;;;;;;5079806;28;20923;-90
2021/07/28 11:48:34;;;;;;;2.60;2.50;;;26.20;44.60;;;;;;5080120;28;20879;-91
2021/07/28 11:51:05;;;;;;;5.73;5.27;;;25.50;44.30;;;;;;5078657;28;20421;-90
2021/07/28 11:53:31;;;;;;;3.30;3.20;;;;;;;;;;5072755;28;20432;-90
2021/07/28 11:56:08;;;;;;;3.10;3.00;;;25.50;45.90;;;;;;5078696;28;20415;-90
2021/07/28 11:58:34;;;;;;;2.93;2.87;;;25.90;46.70;;;;;;5061366;28;20458;-89
2021/07/28 12:01:17;;;;;;;2.50;2.50;;;28.30;48.00;;;;;;5078361;28;20464;-87
2021/07/28 12:03:51;;;;;;;3.00;2.90;;;32.60;50.10;;;;;;5074988;28;20416;-87
2021/07/28 12:06:37;;;;;;;3.90;3.03;;;26.60;44.80;;;;;;4356251;28;10000739;-86
2021/07/28 12:09:15;;;;;;;4.50;4.13;;;26.50;44.50;;;;;;5054596;28;20414;-88
2021/07/28 12:11:50;;;;;;;3.80;2.50;;;27.40;44.00;;;;;;5056826;28;20415;-87
2021/07/28 12:14:26;;;;;;;2.90;2.80;;;26.90;43.40;;;;;;5039839;28;20789;-86
2021/07/28 12:17:02;;;;;;;3.57;3.03;;;26.60;43.80;;;;;;5058972;28;20974;-87
2021/07/28 12:19:39;;;;;;;3.03;2.83;;;27.50;43.80;;;;;;5078085;28;20423;-86
2021/07/28 12:22:10;;;;;;;2.23;2.23;;;29.00;43.10;;;;;;5080498;28;20411;-87
2021/07/28 12:24:46;;;;;;;2.67;2.57;;;28.30;41.70;;;;;;5074725;28;20405;-85
2021/07/28 12:27:24;;;;;;;2.60;2.37;;;28.70;42.50;;;;;;5074793;28;20829;-87
2021/07/28 12:30:00;;;;;;;2.80;2.63;;;28.10;42.70;;;;;;5075454;28;20495;-87
2021/07/28 12:32:45;;;;;;;3.27;3.07;;;27.30;55.80;;;;;;5075524;28;20559;-89
2021/07/28 12:35:20;;;;;;;2.20;2.00;;;27.60;42.40;;;;;;5064029;28;20419;-90
2021/07/28 12:37:46;;;;;;;2.20;2.20;;;;;;;;;;5062233;28;20424;-88
2021/07/28 12:40:12;;;;;;;2.60;2.50;;;27.50;42.00;;;;;;5077020;28;20472;-88
2021/07/28 12:42:38;;;;;;;9.40;2.13;;;;;;;;;;5060762;28;20425;-88
2021/07/28 12:45:10;;;;;;;2.97;2.37;;;28.20;40.60;;;;;;5077967;28;20167;-89
2021/07/28 12:47:36;;;;;;;2.07;1.97;;;28.40;41.60;;;;;;5062849;28;20451;-88
2021/07/28 12:50:04;;;;;;;2.70;2.50;;;29.40;41.80;;;;;;5078722;28;20412;-89
2021/07/28 12:52:31;;;;;;;1.87;1.87;;;29.50;41.50;;;;;;5077413;28;20579;-89
2021/07/28 12:54:57;;;;;;;9.80;3.03;;;;;;;;;;5042503;28;20420;-89
2021/07/28 12:57:28;;;;;;;1.40;1.40;;;29.30;52.20;;;;;;5075210;28;20413;-87
2021/07/28 12:59:53;;;;;;;1.90;1.90;;;28.90;39.00;;;;;;5058491;28;20536;-89
2021/07/28 13:02:22;;;;;;;4.93;2.30;;;27.80;51.90;;;;;;5082482;28;20449;-89
2021/07/28 13:04:57;;;;;;;2.07;2.07;;;27.70;41.10;;;;;;5078833;28;20185;-89
2021/07/28 13:08:24;;;;;;;2.17;2.07;;;;;;;;;;5075331;28;20466;-89
2021/07/28 13:10:19;;;;;;;1.80;1.80;;;;;;;;;;5061467;28;20996;-87
2021/07/28 13:12:45;;;;;;;1.60;1.60;;;;;;;;;;5075901;28;20407;-88
2021/07/28 13:15:11;;;;;;;1.93;1.93;;;28.20;38.70;;;;;;5075784;28;20891;-89
2021/07/28 13:17:37;;;;;;;1.70;1.70;;;;;;;;;;5078700;28;20413;-89
2021/07/28 13:20:03;;;;;;;6.47;2.43;;;28.20;38.10;;;;;;5072842;28;20540;-87
2021/07/28 13:22:36;;;;;;;1.73;1.70;;;28.40;38.40;;;;;;5079280;28;20420;-89
2021/07/28 13:25:03;;;;;;;1.50;1.50;;;27.80;37.20;;;;;;5080736;28;20421;-87
2021/07/28 13:27:28;;;;;;;1.80;1.70;;;27.60;37.80;;;;;;5081341;28;20406;-89
2021/07/28 13:30:07;;;;;;;2.13;2.03;;;26.80;39.50;;;;;;5065510;28;20508;-92
2021/07/28 13:32:33;;;;;;;1.70;1.60;;;;;;;;;;5065558;28;20253;-89
2021/07/28 13:35:00;;;;;;;1.60;1.60;;;;;;;;;;5080794;28;20404;-88
2021/07/28 13:37:26;;;;;;;3.30;3.13;;;;;;;;;;5061342;28;20421;-89
2021/07/28 13:39:52;;;;;;;2.13;1.60;;;;;;;;;;5055900;28;20485;-88
2021/07/28 13:42:18;;;;;;;1.70;1.70;;;;;;;;;;5059127;28;20481;-90